createdAt,value
2017-07-27T00:00:42.119Z,0
2017-07-27T00:01:51.325Z,0
2017-07-27T00:03:00.542Z,0
2017-07-27T00:04:10.071Z,0
2017-07-27T00:05:19.928Z,0
2017-07-27T00:06:29.129Z,0
2017-07-27T00:07:38.345Z,0
2017-07-27T00:08:47.877Z,0
2017-07-27T00:09:57.725Z,0
2017-07-27T00:11:06.932Z,0
2017-07-27T00:12:17.158Z,0
2017-07-27T00:13:26.048Z,0
2017-07-27T00:14:35.779Z,0
2017-07-27T00:15:44.664Z,0
2017-07-27T00:16:54.244Z,0
2017-07-27T00:18:03.924Z,0
2017-07-27T00:19:13.449Z,0
2017-07-27T00:20:22.657Z,0
2017-07-27T00:21:31.863Z,0
2017-07-27T00:22:41.395Z,0
2017-07-27T00:23:50.437Z,0
2017-07-27T00:24:59.317Z,0
2017-07-27T00:26:09.169Z,0
2017-07-27T00:27:18.054Z,0
2017-07-27T00:28:27.907Z,0
2017-07-27T00:29:37.486Z,0
2017-07-27T00:30:46.376Z,0
2017-07-27T00:31:55.579Z,0
2017-07-27T00:33:04.784Z,0
2017-07-27T00:34:13.998Z,0
2017-07-27T00:35:22.985Z,0
2017-07-27T00:36:32.194Z,0
2017-07-27T00:37:41.077Z,0
2017-07-27T00:38:50.282Z,0
2017-07-27T00:39:59.164Z,0
2017-07-27T00:41:09.172Z,0
2017-07-27T00:42:18.062Z,0
2017-07-27T00:43:27.601Z,0
2017-07-27T00:44:37.449Z,0
2017-07-27T00:45:46.656Z,0
2017-07-27T00:46:56.017Z,0
2017-07-27T00:48:05.556Z,0
2017-07-27T00:49:14.789Z,0
2017-07-27T00:50:23.995Z,0
2017-07-27T00:51:33.203Z,0
2017-07-27T00:52:43.052Z,0
2017-07-27T00:53:52.259Z,0
2017-07-27T00:55:01.469Z,0
2017-07-27T00:56:11.336Z,0
2017-07-27T00:57:20.540Z,0
2017-07-27T00:58:29.522Z,0
2017-07-27T00:59:39.047Z,0
2017-07-27T01:00:48.253Z,0
2017-07-27T01:01:57.143Z,0
2017-07-27T01:03:06.674Z,0
2017-07-27T01:04:16.076Z,0
2017-07-27T01:05:25.936Z,0
2017-07-27T01:06:35.145Z,0
2017-07-27T01:07:44.689Z,0
2017-07-27T01:08:54.240Z,0
2017-07-27T01:10:03.815Z,0
2017-07-27T01:11:13.347Z,0
2017-07-27T01:12:23.213Z,0
2017-07-27T01:13:32.754Z,0
2017-07-27T01:14:42.286Z,0
2017-07-27T01:15:51.961Z,0
2017-07-27T01:17:01.491Z,0
2017-07-27T01:18:10.699Z,0
2017-07-27T01:19:19.906Z,0
2017-07-27T01:20:29.434Z,0
2017-07-27T01:21:38.367Z,0
2017-07-27T01:22:47.251Z,0
2017-07-27T01:23:57.102Z,0
2017-07-27T01:25:06.635Z,0
2017-07-27T01:26:15.843Z,0
2017-07-27T01:27:25.807Z,0
2017-07-27T01:28:35.014Z,0
2017-07-27T01:29:44.218Z,0
2017-07-27T01:30:54.399Z,0
2017-07-27T01:32:03.621Z,0
2017-07-27T01:33:13.552Z,0
2017-07-27T01:34:22.758Z,0
2017-07-27T01:35:32.288Z,0
2017-07-27T01:36:41.171Z,0
2017-07-27T01:37:51.024Z,0
2017-07-27T01:39:00.753Z,0
2017-07-27T01:40:10.606Z,0
2017-07-27T01:41:20.783Z,0
2017-07-27T01:42:30.640Z,0
2017-07-27T01:43:40.492Z,0
2017-07-27T01:44:50.504Z,0
2017-07-27T01:46:00.035Z,0
2017-07-27T01:47:09.239Z,0
2017-07-27T01:48:18.123Z,0
2017-07-27T01:49:27.653Z,0
2017-07-27T01:50:37.479Z,0
2017-07-27T01:51:47.005Z,0
2017-07-27T01:52:55.898Z,0
2017-07-27T01:54:05.431Z,0
2017-07-27T01:55:14.965Z,0
2017-07-27T01:56:25.024Z,0
2017-07-27T01:57:34.551Z,0
2017-07-27T01:58:43.756Z,0
2017-07-27T01:59:53.288Z,0
2017-07-27T02:01:03.142Z,0
2017-07-27T02:02:12.652Z,0
2017-07-27T02:03:21.535Z,0
2017-07-27T02:04:31.071Z,0
2017-07-27T02:05:40.599Z,0
2017-07-27T02:06:49.484Z,0
2017-07-27T02:07:58.747Z,0
2017-07-27T02:09:08.284Z,0
2017-07-27T02:10:17.820Z,0
2017-07-27T02:11:27.034Z,0
2017-07-27T02:12:36.566Z,0
2017-07-27T02:13:46.389Z,0
2017-07-27T02:14:55.592Z,0
2017-07-27T02:16:04.805Z,0
2017-07-27T02:17:14.339Z,0
2017-07-27T02:18:23.551Z,0
2017-07-27T02:19:33.503Z,0
2017-07-27T02:20:43.360Z,0
2017-07-27T02:21:52.896Z,0
2017-07-27T02:23:03.073Z,0
2017-07-27T02:24:12.601Z,0
2017-07-27T02:25:22.328Z,0
2017-07-27T02:26:31.536Z,0
2017-07-27T02:27:40.742Z,0
2017-07-27T02:28:49.636Z,0
2017-07-27T02:29:58.528Z,0
2017-07-27T02:31:08.708Z,0
2017-07-27T02:32:18.235Z,0
2017-07-27T02:33:27.770Z,0
2017-07-27T02:34:37.303Z,0
2017-07-27T02:35:46.199Z,0
2017-07-27T02:36:55.438Z,0
2017-07-27T02:38:05.623Z,0
2017-07-27T02:39:15.804Z,0
2017-07-27T02:40:25.660Z,0
2017-07-27T02:41:34.864Z,0
2017-07-27T02:42:44.068Z,0
2017-07-27T02:43:53.597Z,0
2017-07-27T02:45:02.801Z,0
2017-07-27T02:46:12.009Z,0
2017-07-27T02:47:21.547Z,0
2017-07-27T02:48:31.378Z,0
2017-07-27T02:49:40.265Z,0
2017-07-27T02:50:50.113Z,0
2017-07-27T02:51:59.327Z,0
2017-07-27T02:53:09.184Z,0
2017-07-27T02:54:18.115Z,0
2017-07-27T02:55:27.969Z,0
2017-07-27T02:56:37.174Z,0
2017-07-27T02:57:46.384Z,0
2017-07-27T02:58:55.594Z,0
2017-07-27T03:00:05.274Z,0
2017-07-27T03:01:14.482Z,0
2017-07-27T03:02:23.700Z,0
2017-07-27T03:03:32.909Z,0
2017-07-27T03:04:42.119Z,0
2017-07-27T03:05:51.374Z,4
2017-07-27T03:07:00.918Z,4
2017-07-27T03:08:10.121Z,0
2017-07-27T03:09:19.008Z,0
2017-07-27T03:10:28.551Z,4
2017-07-27T03:11:37.870Z,4
2017-07-27T03:12:47.079Z,0
2017-07-27T03:13:56.290Z,4
2017-07-27T03:15:06.146Z,4
2017-07-27T03:16:16.000Z,8
2017-07-27T03:17:25.235Z,8
2017-07-27T03:18:34.443Z,8
2017-07-27T03:19:43.698Z,8
2017-07-27T03:20:53.225Z,12
2017-07-27T03:22:02.433Z,12
2017-07-27T03:23:12.014Z,16
2017-07-27T03:24:21.547Z,20
2017-07-27T03:25:30.753Z,24
2017-07-27T03:26:40.607Z,24
2017-07-27T03:27:50.139Z,28
2017-07-27T03:28:59.344Z,32
2017-07-27T03:30:09.212Z,36
2017-07-27T03:31:18.752Z,44
2017-07-27T03:32:28.286Z,40
2017-07-27T03:33:37.817Z,48
2017-07-27T03:34:46.752Z,52
2017-07-27T03:35:56.282Z,56
2017-07-27T03:37:06.134Z,60
2017-07-27T03:38:15.337Z,64
2017-07-27T03:39:24.218Z,68
2017-07-27T03:40:34.276Z,76
2017-07-27T03:41:43.159Z,88
2017-07-27T03:42:52.368Z,92
2017-07-27T03:44:01.574Z,96
2017-07-27T03:45:10.781Z,104
2017-07-27T03:46:20.288Z,108
2017-07-27T03:47:29.490Z,116
2017-07-27T03:48:38.705Z,124
2017-07-27T03:49:47.909Z,144
2017-07-27T03:50:57.118Z,152
2017-07-27T03:52:07.119Z,168
2017-07-27T03:53:16.324Z,180
2017-07-27T03:54:25.850Z,160
2017-07-27T03:55:35.069Z,144
2017-07-27T03:56:44.278Z,168
2017-07-27T03:57:53.855Z,196
2017-07-27T03:59:02.743Z,204
2017-07-27T04:00:11.951Z,200
2017-07-27T04:01:21.152Z,212
2017-07-27T04:02:30.031Z,240
2017-07-27T04:03:40.211Z,244
2017-07-27T04:04:49.741Z,244
2017-07-27T04:05:59.275Z,268
2017-07-27T04:07:09.451Z,324
2017-07-27T04:08:18.334Z,404
2017-07-27T04:09:27.837Z,436
2017-07-27T04:10:36.720Z,432
2017-07-27T04:11:46.249Z,436
2017-07-27T04:12:55.455Z,428
2017-07-27T04:14:05.309Z,432
2017-07-27T04:15:14.865Z,432
2017-07-27T04:16:24.392Z,392
2017-07-27T04:17:33.593Z,340
2017-07-27T04:18:42.802Z,284
2017-07-27T04:19:52.669Z,260
2017-07-27T04:21:02.637Z,272
2017-07-27T04:22:11.862Z,336
2017-07-27T04:23:20.748Z,412
2017-07-27T04:24:30.283Z,488
2017-07-27T04:25:39.491Z,388
2017-07-27T04:26:49.172Z,308
2017-07-27T04:27:58.375Z,284
2017-07-27T04:29:07.255Z,324
2017-07-27T04:30:17.106Z,384
2017-07-27T04:31:26.977Z,284
2017-07-27T04:32:36.294Z,256
2017-07-27T04:33:45.180Z,356
2017-07-27T04:34:54.064Z,336
2017-07-27T04:36:03.271Z,344
2017-07-27T04:37:12.801Z,332
2017-07-27T04:38:22.435Z,464
2017-07-27T04:39:31.974Z,464
2017-07-27T04:40:41.827Z,436
2017-07-27T04:41:51.686Z,416
2017-07-27T04:43:01.217Z,392
2017-07-27T04:44:10.577Z,348
2017-07-27T04:45:19.782Z,548
2017-07-27T04:46:28.993Z,556
2017-07-27T04:47:37.878Z,616
2017-07-27T04:48:47.411Z,568
2017-07-27T04:49:56.292Z,624
2017-07-27T04:51:05.821Z,484
2017-07-27T04:52:15.356Z,540
2017-07-27T04:53:25.208Z,676
2017-07-27T04:54:34.419Z,856
2017-07-27T04:55:44.268Z,1132
2017-07-27T04:56:53.475Z,1044
2017-07-27T04:58:02.679Z,840
2017-07-27T04:59:12.216Z,816
2017-07-27T05:00:21.455Z,928
2017-07-27T05:01:30.489Z,824
2017-07-27T05:02:40.020Z,684
2017-07-27T05:03:49.234Z,672
2017-07-27T05:04:58.118Z,712
2017-07-27T05:06:07.656Z,692
2017-07-27T05:07:17.400Z,672
2017-07-27T05:08:26.606Z,568
2017-07-27T05:09:36.458Z,556
2017-07-27T05:10:45.341Z,660
2017-07-27T05:11:55.195Z,668
2017-07-27T05:13:04.733Z,528
2017-07-27T05:14:13.939Z,488
2017-07-27T05:15:23.466Z,484
2017-07-27T05:16:33.000Z,416
2017-07-27T05:17:42.530Z,460
2017-07-27T05:18:52.436Z,732
2017-07-27T05:20:02.296Z,908
2017-07-27T05:21:11.508Z,704
2017-07-27T05:22:20.714Z,828
2017-07-27T05:23:29.916Z,1040
2017-07-27T05:24:39.126Z,1200
2017-07-27T05:25:48.334Z,1412
2017-07-27T05:26:57.859Z,1668
2017-07-27T05:28:07.071Z,1812
2017-07-27T05:29:16.606Z,1916
2017-07-27T05:30:25.916Z,1944
2017-07-27T05:31:35.774Z,1944
2017-07-27T05:32:45.307Z,1980
2017-07-27T05:33:54.517Z,1688
2017-07-27T05:35:04.042Z,1408
2017-07-27T05:36:13.490Z,1616
2017-07-27T05:37:22.708Z,1604
2017-07-27T05:38:32.243Z,1436
2017-07-27T05:39:41.453Z,1508
2017-07-27T05:40:50.666Z,1932
2017-07-27T05:42:00.259Z,1956
2017-07-27T05:43:09.476Z,1848
2017-07-27T05:44:18.689Z,1636
2017-07-27T05:45:28.225Z,1364
2017-07-27T05:46:37.126Z,1332
2017-07-27T05:47:46.989Z,1324
2017-07-27T05:48:56.850Z,1392
2017-07-27T05:50:06.710Z,1496
2017-07-27T05:51:16.244Z,1472
2017-07-27T05:52:25.450Z,1984
2017-07-27T05:53:34.584Z,1600
2017-07-27T05:54:43.796Z,1536
2017-07-27T05:55:53.020Z,1424
2017-07-27T05:57:01.904Z,1096
2017-07-27T05:58:11.439Z,1016
2017-07-27T05:59:21.070Z,1248
2017-07-27T06:00:30.283Z,1808
2017-07-27T06:01:39.504Z,2156
2017-07-27T06:02:49.042Z,2064
2017-07-27T06:03:58.250Z,2068
2017-07-27T06:05:08.203Z,2360
2017-07-27T06:06:17.754Z,2392
2017-07-27T06:07:27.289Z,2332
2017-07-27T06:08:37.143Z,2748
2017-07-27T06:09:46.352Z,3128
2017-07-27T06:10:55.289Z,3432
2017-07-27T06:12:04.815Z,3384
2017-07-27T06:13:14.349Z,3248
2017-07-27T06:14:23.884Z,3152
2017-07-27T06:15:33.749Z,3216
2017-07-27T06:16:43.602Z,3188
2017-07-27T06:17:52.809Z,3140
2017-07-27T06:19:02.390Z,3076
2017-07-27T06:20:11.623Z,2860
2017-07-27T06:21:21.151Z,2672
2017-07-27T06:22:30.092Z,2200
2017-07-27T06:23:39.626Z,2116
2017-07-27T06:24:49.532Z,1784
2017-07-27T06:25:59.724Z,1788
2017-07-27T06:27:09.255Z,1856
2017-07-27T06:28:19.112Z,1596
2017-07-27T06:29:28.007Z,1632
2017-07-27T06:30:37.903Z,1532
2017-07-27T06:31:47.435Z,1232
2017-07-27T06:32:56.325Z,1456
2017-07-27T06:34:05.861Z,1416
2017-07-27T06:35:15.696Z,1556
2017-07-27T06:36:24.921Z,1588
2017-07-27T06:37:34.778Z,1628
2017-07-27T06:38:44.642Z,1776
2017-07-27T06:39:54.204Z,1392
2017-07-27T06:41:03.739Z,1412
2017-07-27T06:42:13.286Z,1620
2017-07-27T06:43:23.369Z,1712
2017-07-27T06:44:32.579Z,1584
2017-07-27T06:45:42.112Z,2060
2017-07-27T06:46:51.324Z,2588
2017-07-27T06:48:00.861Z,2592
2017-07-27T06:49:09.768Z,2820
2017-07-27T06:50:19.305Z,3620
2017-07-27T06:51:29.177Z,3828
2017-07-27T06:52:38.397Z,3864
2017-07-27T06:53:47.607Z,3740
2017-07-27T06:54:56.818Z,3744
2017-07-27T06:56:06.999Z,3736
2017-07-27T06:57:16.212Z,3664
2017-07-27T06:58:25.748Z,3512
2017-07-27T06:59:35.760Z,3156
2017-07-27T07:00:44.977Z,3124
2017-07-27T07:01:54.186Z,2944
2017-07-27T07:03:03.717Z,2972
2017-07-27T07:04:12.927Z,3136
2017-07-27T07:05:22.465Z,3028
2017-07-27T07:06:31.673Z,3236
2017-07-27T07:07:41.211Z,3756
2017-07-27T07:08:50.749Z,4356
2017-07-27T07:09:59.641Z,4876
2017-07-27T07:11:09.371Z,5352
2017-07-27T07:12:18.591Z,5524
2017-07-27T07:13:27.478Z,5908
2017-07-27T07:14:37.015Z,5784
2017-07-27T07:15:46.897Z,5296
2017-07-27T07:16:56.116Z,5196
2017-07-27T07:18:05.657Z,5032
2017-07-27T07:19:15.193Z,5136
2017-07-27T07:20:25.381Z,4060
2017-07-27T07:21:35.243Z,3760
2017-07-27T07:22:44.605Z,3444
2017-07-27T07:23:54.136Z,2932
2017-07-27T07:25:03.020Z,2284
2017-07-27T07:26:12.880Z,3456
2017-07-27T07:27:22.093Z,3140
2017-07-27T07:28:31.830Z,2776
2017-07-27T07:29:41.708Z,2004
2017-07-27T07:30:51.243Z,2176
2017-07-27T07:32:00.455Z,1940
2017-07-27T07:33:09.663Z,1692
2017-07-27T07:34:19.819Z,1400
2017-07-27T07:35:29.368Z,2452
2017-07-27T07:36:38.908Z,3392
2017-07-27T07:37:49.093Z,2732
2017-07-27T07:38:57.980Z,4176
2017-07-27T07:40:07.615Z,4844
2017-07-27T07:41:17.167Z,4416
2017-07-27T07:42:26.376Z,3856
2017-07-27T07:43:36.236Z,3380
2017-07-27T07:44:45.127Z,3564
2017-07-27T07:45:54.498Z,4220
2017-07-27T07:47:04.382Z,4508
2017-07-27T07:48:14.564Z,4744
2017-07-27T07:49:23.770Z,4784
2017-07-27T07:50:33.645Z,4916
2017-07-27T07:51:43.008Z,5000
2017-07-27T07:52:52.868Z,4780
2017-07-27T07:54:03.055Z,4984
2017-07-27T07:55:12.913Z,4960
2017-07-27T07:56:22.447Z,4524
2017-07-27T07:57:32.401Z,4688
2017-07-27T07:58:41.993Z,4420
2017-07-27T07:59:51.600Z,4036
2017-07-27T08:01:00.839Z,4744
2017-07-27T08:02:10.404Z,4548
2017-07-27T08:03:20.412Z,3132
2017-07-27T08:04:30.268Z,4748
2017-07-27T08:05:39.804Z,3268
2017-07-27T08:06:48.700Z,3956
2017-07-27T08:07:57.909Z,4472
2017-07-27T08:09:07.446Z,3808
2017-07-27T08:10:16.978Z,4176
2017-07-27T08:11:26.842Z,4748
2017-07-27T08:12:36.067Z,5020
2017-07-27T08:13:45.969Z,3928
2017-07-27T08:14:55.558Z,3000
2017-07-27T08:16:05.091Z,3444
2017-07-27T08:17:14.306Z,4232
2017-07-27T08:18:23.520Z,4696
2017-07-27T08:19:33.055Z,4864
2017-07-27T08:20:42.906Z,4928
2017-07-27T08:21:52.449Z,5708
2017-07-27T08:23:01.986Z,5740
2017-07-27T08:24:11.866Z,5244
2017-07-27T08:25:22.054Z,4440
2017-07-27T08:26:31.913Z,3672
2017-07-27T08:27:41.457Z,3700
2017-07-27T08:28:51.000Z,3788
2017-07-27T08:30:01.187Z,4096
2017-07-27T08:31:11.062Z,5068
2017-07-27T08:32:20.750Z,5728
2017-07-27T08:33:29.959Z,5936
2017-07-27T08:34:39.199Z,6804
2017-07-27T08:35:48.733Z,5532
2017-07-27T08:36:57.965Z,4292
2017-07-27T08:38:08.244Z,3316
2017-07-27T08:39:17.792Z,3432
2017-07-27T08:40:27.667Z,4032
2017-07-27T08:41:37.200Z,4272
2017-07-27T08:42:46.409Z,5484
2017-07-27T08:43:56.414Z,5880
2017-07-27T08:45:06.924Z,6408
2017-07-27T08:46:15.813Z,6724
2017-07-27T08:47:25.667Z,6424
2017-07-27T08:48:35.201Z,5788
2017-07-27T08:49:44.788Z,5408
2017-07-27T08:50:53.676Z,6648
2017-07-27T08:52:03.211Z,6288
2017-07-27T08:53:12.745Z,6656
2017-07-27T08:54:21.958Z,6548
2017-07-27T08:55:31.492Z,6424
2017-07-27T08:56:40.702Z,6556
2017-07-27T08:57:49.918Z,6936
2017-07-27T08:58:58.805Z,6852
2017-07-27T09:00:08.015Z,7176
2017-07-27T09:01:17.558Z,7336
2017-07-27T09:02:26.776Z,7300
2017-07-27T09:03:35.659Z,7228
2017-07-27T09:04:44.876Z,7244
2017-07-27T09:05:54.415Z,7296
2017-07-27T09:07:03.786Z,7300
2017-07-27T09:08:13.006Z,7216
2017-07-27T09:09:22.220Z,7088
2017-07-27T09:10:31.436Z,6876
2017-07-27T09:11:40.646Z,6184
2017-07-27T09:12:50.227Z,7012
2017-07-27T09:13:59.441Z,7244
2017-07-27T09:15:08.659Z,7340
2017-07-27T09:16:18.194Z,7348
2017-07-27T09:17:27.082Z,7412
2017-07-27T09:18:36.765Z,7412
2017-07-27T09:19:45.973Z,7376
2017-07-27T09:20:55.839Z,7156
2017-07-27T09:22:05.060Z,7192
2017-07-27T09:23:13.962Z,7040
2017-07-27T09:24:23.172Z,7256
2017-07-27T09:25:32.396Z,7392
2017-07-27T09:26:41.285Z,7204
2017-07-27T09:27:50.494Z,6600
2017-07-27T09:28:59.704Z,7524
2017-07-27T09:30:09.545Z,7768
2017-07-27T09:31:18.760Z,7684
2017-07-27T09:32:27.975Z,7780
2017-07-27T09:33:37.511Z,7824
2017-07-27T09:34:47.065Z,7768
2017-07-27T09:35:56.425Z,7352
2017-07-27T09:37:06.603Z,5932
2017-07-27T09:38:15.825Z,7432
2017-07-27T09:39:25.355Z,7720
2017-07-27T09:40:34.562Z,7368
2017-07-27T09:41:44.301Z,6504
2017-07-27T09:42:53.845Z,4752
2017-07-27T09:44:03.380Z,4440
2017-07-27T09:45:13.242Z,5372
2017-07-27T09:46:23.104Z,6308
2017-07-27T09:47:32.470Z,7016
2017-07-27T09:48:41.364Z,7344
2017-07-27T09:49:51.233Z,7344
2017-07-27T09:51:01.417Z,7388
2017-07-27T09:52:10.952Z,7596
2017-07-27T09:53:20.321Z,7708
2017-07-27T09:54:29.529Z,7632
2017-07-27T09:55:38.740Z,7504
2017-07-27T09:56:47.959Z,7492
2017-07-27T09:57:57.499Z,7664
2017-07-27T09:59:07.478Z,8068
2017-07-27T10:00:17.018Z,8644
2017-07-27T10:01:27.203Z,9296
2017-07-27T10:02:36.421Z,8680
2017-07-27T10:03:45.308Z,8716
2017-07-27T10:04:54.777Z,8052
2017-07-27T10:06:04.003Z,6548
2017-07-27T10:07:13.863Z,5816
2017-07-27T10:08:22.748Z,4340
2017-07-27T10:09:32.616Z,3288
2017-07-27T10:10:42.303Z,2532
2017-07-27T10:11:52.166Z,2020
2017-07-27T10:13:01.381Z,1676
2017-07-27T10:14:11.240Z,1708
2017-07-27T10:15:20.457Z,2120
2017-07-27T10:16:29.345Z,2724
2017-07-27T10:17:38.566Z,5424
2017-07-27T10:18:47.784Z,6756
2017-07-27T10:19:57.317Z,5612
2017-07-27T10:21:06.852Z,5548
2017-07-27T10:22:16.214Z,5208
2017-07-27T10:23:25.431Z,4216
2017-07-27T10:24:35.310Z,3684
2017-07-27T10:25:44.526Z,5044
2017-07-27T10:26:54.060Z,4700
2017-07-27T10:28:03.475Z,3964
2017-07-27T10:29:13.667Z,5748
2017-07-27T10:30:22.879Z,7712
2017-07-27T10:31:32.093Z,8244
2017-07-27T10:32:41.330Z,8936
2017-07-27T10:33:50.967Z,8976
2017-07-27T10:34:59.857Z,8840
2017-07-27T10:36:09.393Z,8196
2017-07-27T10:37:18.282Z,8588
2017-07-27T10:38:27.508Z,8612
2017-07-27T10:39:36.944Z,8624
2017-07-27T10:40:46.493Z,8620
2017-07-27T10:41:56.371Z,8412
2017-07-27T10:43:05.913Z,8096
2017-07-27T10:44:15.152Z,7964
2017-07-27T10:45:24.469Z,7780
2017-07-27T10:46:34.007Z,7420
2017-07-27T10:47:43.221Z,7748
2017-07-27T10:48:52.113Z,8472
2017-07-27T10:50:01.337Z,8440
2017-07-27T10:51:11.019Z,8304
2017-07-27T10:52:21.207Z,8116
2017-07-27T10:53:30.424Z,8068
2017-07-27T10:54:40.288Z,8712
2017-07-27T10:55:49.825Z,9316
2017-07-27T10:56:59.038Z,8644
2017-07-27T10:58:08.573Z,7616
2017-07-27T10:59:18.111Z,7796
2017-07-27T11:00:27.322Z,7072
2017-07-27T11:01:37.504Z,6228
2017-07-27T11:02:46.498Z,6852
2017-07-27T11:03:56.361Z,6924
2017-07-27T11:05:05.899Z,6624
2017-07-27T11:06:15.769Z,6124
2017-07-27T11:07:24.978Z,6316
2017-07-27T11:08:34.117Z,7128
2017-07-27T11:09:43.004Z,7416
2017-07-27T11:10:52.546Z,7972
2017-07-27T11:12:01.765Z,9420
2017-07-27T11:13:11.302Z,10008
2017-07-27T11:14:21.083Z,9656
2017-07-27T11:15:30.939Z,9180
2017-07-27T11:16:40.796Z,9608
2017-07-27T11:17:49.686Z,9872
2017-07-27T11:18:58.640Z,9776
2017-07-27T11:20:08.180Z,9936
2017-07-27T11:21:17.719Z,10316
2017-07-27T11:22:27.257Z,10016
2017-07-27T11:23:36.796Z,10288
2017-07-27T11:24:46.347Z,10164
2017-07-27T11:25:55.612Z,9892
2017-07-27T11:27:05.475Z,9752
2017-07-27T11:28:14.693Z,9616
2017-07-27T11:29:23.908Z,9528
2017-07-27T11:30:32.797Z,9568
2017-07-27T11:31:41.681Z,9676
2017-07-27T11:32:50.595Z,9548
2017-07-27T11:33:59.837Z,9448
2017-07-27T11:35:10.019Z,9244
2017-07-27T11:36:18.904Z,9224
2017-07-27T11:37:28.601Z,9388
2017-07-27T11:38:38.136Z,9748
2017-07-27T11:39:48.001Z,10356
2017-07-27T11:40:57.541Z,11232
2017-07-27T11:42:07.078Z,11676
2017-07-27T11:43:16.591Z,11340
2017-07-27T11:44:26.453Z,10272
2017-07-27T11:45:35.674Z,9512
2017-07-27T11:46:45.210Z,10036
2017-07-27T11:47:54.427Z,9812
2017-07-27T11:49:04.016Z,9716
2017-07-27T11:50:13.892Z,10096
2017-07-27T11:51:22.781Z,10904
2017-07-27T11:52:32.314Z,11592
2017-07-27T11:53:41.528Z,13192
2017-07-27T11:54:51.215Z,14580
2017-07-27T11:56:00.424Z,13304
2017-07-27T11:57:09.961Z,12648
2017-07-27T11:58:19.512Z,14276
2017-07-27T11:59:29.046Z,14160
2017-07-27T12:00:38.131Z,12076
2017-07-27T12:01:47.988Z,16352
2017-07-27T12:02:57.534Z,34528
2017-07-27T12:04:07.392Z,26240
2017-07-27T12:05:17.247Z,16128
2017-07-27T12:06:26.284Z,52320
2017-07-27T12:07:35.505Z,60480
2017-07-27T12:08:45.048Z,12052
2017-07-27T12:09:54.585Z,13540
2017-07-27T12:11:04.127Z,18336
2017-07-27T12:12:13.826Z,39552
2017-07-27T12:13:24.059Z,46400
2017-07-27T12:14:33.273Z,35808
2017-07-27T12:15:42.497Z,55968
2017-07-27T12:16:51.721Z,52032
2017-07-27T12:18:01.044Z,44448
2017-07-27T12:19:10.921Z,41376
2017-07-27T12:20:21.118Z,21440
2017-07-27T12:21:30.012Z,25056
2017-07-27T12:22:39.228Z,81952
2017-07-27T12:23:49.572Z,65824
2017-07-27T12:24:58.483Z,13520
2017-07-27T12:26:08.350Z,35232
2017-07-27T12:27:18.552Z,62208
2017-07-27T12:28:27.769Z,58304
2017-07-27T12:29:36.715Z,62432
2017-07-27T12:30:46.582Z,20800
2017-07-27T12:31:56.123Z,29856
2017-07-27T12:33:05.996Z,48096
2017-07-27T12:34:15.545Z,42688
2017-07-27T12:35:25.763Z,33248
2017-07-27T12:36:35.311Z,18176
2017-07-27T12:37:44.847Z,57664
2017-07-27T12:38:54.388Z,45184
2017-07-27T12:40:04.271Z,20512
2017-07-27T12:41:13.654Z,16768
2017-07-27T12:42:23.202Z,14668
2017-07-27T12:43:32.422Z,11524
2017-07-27T12:44:41.641Z,11040
2017-07-27T12:45:50.864Z,12060
2017-07-27T12:47:00.229Z,10360
2017-07-27T12:48:09.449Z,10864
2017-07-27T12:49:18.984Z,18784
2017-07-27T12:50:28.529Z,23744
2017-07-27T12:51:37.747Z,29984
2017-07-27T12:52:47.364Z,28928
2017-07-27T12:53:57.248Z,34656
2017-07-27T12:55:06.460Z,36160
2017-07-27T12:56:15.688Z,31296
2017-07-27T12:57:24.903Z,31488
2017-07-27T12:58:33.804Z,28992
2017-07-27T12:59:43.019Z,44256
2017-07-27T13:00:52.565Z,51360
2017-07-27T13:02:02.139Z,30784
2017-07-27T13:03:11.366Z,28864
2017-07-27T13:04:21.390Z,33984
2017-07-27T13:05:30.293Z,45024
2017-07-27T13:06:39.831Z,23360
2017-07-27T13:07:49.373Z,19840
2017-07-27T13:08:58.593Z,28480
2017-07-27T13:10:08.384Z,54912
2017-07-27T13:11:17.928Z,41504
2017-07-27T13:12:27.472Z,18304
2017-07-27T13:13:36.689Z,11912
2017-07-27T13:14:45.580Z,9316
2017-07-27T13:15:54.949Z,8024
2017-07-27T13:17:03.849Z,8072
2017-07-27T13:18:13.406Z,10020
2017-07-27T13:19:23.274Z,8312
2017-07-27T13:20:32.519Z,7220
2017-07-27T13:21:42.708Z,10944
2017-07-27T13:22:52.248Z,45184
2017-07-27T13:24:01.465Z,69376
2017-07-27T13:25:10.685Z,40096
2017-07-27T13:26:20.238Z,40320
2017-07-27T13:27:29.986Z,31584
2017-07-27T13:28:39.851Z,21312
2017-07-27T13:29:48.752Z,18528
2017-07-27T13:30:57.978Z,29792
2017-07-27T13:32:07.870Z,23424
2017-07-27T13:33:17.850Z,17760
2017-07-27T13:34:27.723Z,13992
2017-07-27T13:35:37.592Z,13888
2017-07-27T13:36:47.177Z,14040
2017-07-27T13:37:56.746Z,15200
2017-07-27T13:39:06.120Z,18304
2017-07-27T13:40:15.363Z,20992
2017-07-27T13:41:24.908Z,18816
2017-07-27T13:42:34.129Z,17184
2017-07-27T13:43:43.673Z,17152
2017-07-27T13:44:53.702Z,16864
2017-07-27T13:46:03.245Z,15240
2017-07-27T13:47:12.465Z,14692
2017-07-27T13:48:22.005Z,12688
2017-07-27T13:49:31.558Z,11468
2017-07-27T13:50:40.931Z,9984
2017-07-27T13:51:50.797Z,9380
2017-07-27T13:53:00.011Z,9028
2017-07-27T13:54:08.909Z,8544
2017-07-27T13:55:18.446Z,7792
2017-07-27T13:56:28.428Z,7504
2017-07-27T13:57:37.968Z,7872
2017-07-27T13:58:47.824Z,8504
2017-07-27T13:59:56.721Z,8828
2017-07-27T14:01:06.589Z,8880
2017-07-27T14:02:16.506Z,9320
2017-07-27T14:03:26.049Z,10472
2017-07-27T14:04:35.911Z,11196
2017-07-27T14:05:45.450Z,11484
2017-07-27T14:06:54.986Z,11476
2017-07-27T14:08:04.841Z,11536
2017-07-27T14:09:14.728Z,11320
2017-07-27T14:10:23.619Z,10556
2017-07-27T14:11:32.510Z,10200
2017-07-27T14:12:42.053Z,10024
2017-07-27T14:13:51.801Z,9624
2017-07-27T14:15:01.013Z,9008
2017-07-27T14:16:10.880Z,8484
2017-07-27T14:17:20.420Z,8140
2017-07-27T14:18:29.313Z,7928
2017-07-27T14:19:38.999Z,7856
2017-07-27T14:20:47.890Z,7648
2017-07-27T14:21:57.111Z,7636
2017-07-27T14:23:06.007Z,7988
2017-07-27T14:24:15.539Z,8864
2017-07-27T14:25:24.951Z,10144
2017-07-27T14:26:33.842Z,14468
2017-07-27T14:27:43.069Z,11764
2017-07-27T14:28:52.612Z,11748
2017-07-27T14:30:01.828Z,10664
2017-07-27T14:31:11.788Z,9384
2017-07-27T14:32:20.999Z,8560
2017-07-27T14:33:30.544Z,7692
2017-07-27T14:34:40.082Z,7464
2017-07-27T14:35:48.978Z,7748
2017-07-27T14:36:58.516Z,8736
2017-07-27T14:38:07.426Z,13160
2017-07-27T14:39:17.290Z,16224
2017-07-27T14:40:26.512Z,24352
2017-07-27T14:41:35.732Z,24576
2017-07-27T14:42:45.374Z,17120
2017-07-27T14:43:54.909Z,22976
2017-07-27T14:45:04.771Z,10476
2017-07-27T14:46:14.310Z,8288
2017-07-27T14:47:23.843Z,7652
2017-07-27T14:48:33.211Z,7456
2017-07-27T14:49:42.108Z,7436
2017-07-27T14:50:51.653Z,7044
2017-07-27T14:52:01.195Z,6652
2017-07-27T14:53:11.054Z,5700
2017-07-27T14:54:20.273Z,4760
2017-07-27T14:55:29.492Z,4416
2017-07-27T14:56:38.707Z,4320
2017-07-27T14:57:48.246Z,4752
2017-07-27T14:58:57.469Z,4792
2017-07-27T15:00:06.464Z,4520
2017-07-27T15:01:16.331Z,6024
2017-07-27T15:02:25.545Z,7976
2017-07-27T15:03:35.080Z,23136
2017-07-27T15:04:43.981Z,34784
2017-07-27T15:05:53.574Z,24320
2017-07-27T15:07:03.761Z,28256
2017-07-27T15:08:13.301Z,29408
2017-07-27T15:09:22.516Z,38112
2017-07-27T15:10:31.733Z,24096
2017-07-27T15:11:41.105Z,10180
2017-07-27T15:12:50.340Z,5312
2017-07-27T15:13:59.554Z,4036
2017-07-27T15:15:08.449Z,3572
2017-07-27T15:16:17.994Z,3772
2017-07-27T15:17:27.509Z,4000
2017-07-27T15:18:36.400Z,4176
2017-07-27T15:19:45.940Z,5228
2017-07-27T15:20:55.802Z,7496
2017-07-27T15:22:04.701Z,8752
2017-07-27T15:23:13.965Z,9052
2017-07-27T15:24:24.485Z,9704
2017-07-27T15:25:34.350Z,10088
2017-07-27T15:26:43.895Z,10036
2017-07-27T15:27:53.768Z,10728
2017-07-27T15:29:04.051Z,12236
2017-07-27T15:30:13.272Z,16032
2017-07-27T15:31:22.808Z,16480
2017-07-27T15:32:32.347Z,12696
2017-07-27T15:33:41.581Z,8928
2017-07-27T15:34:51.277Z,5956
2017-07-27T15:36:00.824Z,6004
2017-07-27T15:37:10.042Z,6092
2017-07-27T15:38:19.909Z,5900
2017-07-27T15:39:29.445Z,5792
2017-07-27T15:40:39.164Z,5632
2017-07-27T15:41:48.395Z,6024
2017-07-27T15:42:57.614Z,6208
2017-07-27T15:44:06.508Z,6620